Startpagina
METAR-TAF:

METAR-TAF

Vliegvelden :

Luchthaven M'Vengue El Hadj Omar Bongo Ondimba

Franceville, Gabon

breedte: 01-39S, lengte: 013-26E, hoogte: 441 m

Actueel weer

Dit bericht is 5 uur en het 41 minuten geleden gemaakt, om 18:00 UTC
Wind 1 kt uit variabele richting
Temperatuur 25°C
Vochtigheid 94%
Druk 1010 hPa
Zicht: 0700 m
Verspreide wolken op 1000 ft
Weinig wolken op 2000 ft, Cumulonimbus.

METAR: FOON 131800Z VRB01KT 0700 SCT010 FEW020CB 25/24 Q1010

Tijdstip: 00:41 (23:41 UTC)


TAF: ontbreekt

Waarnemingen en weersverwachtingen van meer dan 4000 vliegvelden (METAR en TAF).

De beschikbare stations zijn de gele en rode punten op de kaart.

Ga met uw muis naar het station om de naam te zien.

Klik dan om waarnemingen en weersverwachtingen te zien.

kaart wijzigen: klik op de groene knoppen met een zwart kruis om in te zoomen, op de groene knop met een streepje om uit te zoomen of op de groene pijlen voor aangrenzende kaarten.


METAR-TAF: